Roscoe, Pennsylvania
Current Conditions -  °F | °C
As of 5:53 PM on Tuesday 21 Oct 2014 (Local Time) from KAGC Reporting Station
Overcast Overcast  
Wind Chill: 44°   Ceiling: 2600
Heat Index: 49°   Visibility: 10mi
Dew Point: 44°   Wind: 12mph
Humidity: 83%   Direction: 310°NW
Pressure: 29.93"   Gusts: NA
Location:  40.08°N, 79.87°W
Report Text: KAGC 212153Z 31010KT 10SM FEW010 BKN026 OVC036 09/07 A2993 RMK AO2 RAE47 SLP142 P0001 T00940067
Loading
Personal Weather Stations






























Interactive Weather Map
Tropical Storm Tracking
New forecast layout! Learn more

10-Day Weather Forecast

Advertisements
Track Severe Weather on mobile